createdAt,value
2022-07-30T12:45:27.275Z,23.290001
2022-07-30T12:46:38.101Z,23.290001
2022-07-30T12:47:46.765Z,23.299999
2022-07-30T12:48:56.525Z,23.299999
2022-07-30T12:50:07.104Z,23.299999
2022-07-30T12:51:16.655Z,23.309999
2022-07-30T12:52:27.478Z,23.309999
2022-07-30T12:53:35.245Z,23.32
2022-07-30T12:54:44.966Z,23.33
2022-07-30T12:55:54.018Z,23.34
2022-07-30T12:57:03.881Z,23.35
2022-07-30T12:58:11.178Z,23.360001
2022-07-30T12:59:20.868Z,23.379999
2022-07-30T13:00:30.553Z,23.389999
2022-07-30T13:01:38.199Z,23.41
2022-07-30T13:02:47.726Z,23.42
2022-07-30T13:03:56.307Z,23.440001
2022-07-30T13:05:10.512Z,23.450001
2022-07-30T13:06:14.485Z,23.469999
2022-07-30T13:07:23.042Z,23.49
2022-07-30T13:08:32.611Z,23.5
2022-07-30T13:09:42.259Z,23.52
2022-07-30T13:10:50.834Z,23.540001
2022-07-30T13:12:00.443Z,23.549999
2022-07-30T13:13:09.019Z,23.57
2022-07-30T13:14:18.574Z,23.59
2022-07-30T13:15:28.126Z,23.610001
2022-07-30T13:16:37.683Z,23.620001
2022-07-30T13:17:46.246Z,23.639999
2022-07-30T13:18:55.808Z,23.65
2022-07-30T13:20:04.386Z,23.67
2022-07-30T13:21:13.982Z,23.68
2022-07-30T13:22:22.553Z,23.700001
2022-07-30T13:23:31.111Z,23.719999
2022-07-30T13:24:40.694Z,23.73
2022-07-30T13:25:48.277Z,23.75
2022-07-30T13:26:56.829Z,23.76
2022-07-30T13:28:06.437Z,23.780001
2022-07-30T13:29:13.994Z,23.790001
2022-07-30T13:30:23.576Z,23.799999
2022-07-30T13:31:42.261Z,23.82
2022-07-30T13:32:42.697Z,23.83
2022-07-30T13:33:52.309Z,23.84
2022-07-30T13:35:01.699Z,23.860001
2022-07-30T13:36:08.442Z,23.870001
2022-07-30T13:37:18.003Z,23.889999
2022-07-30T13:38:28.569Z,23.9
2022-07-30T13:39:38.101Z,23.92
2022-07-30T13:40:46.685Z,23.93
2022-07-30T13:41:54.225Z,23.940001
2022-07-30T13:43:02.818Z,23.950001
2022-07-30T13:44:12.401Z,23.969999
2022-07-30T13:45:19.954Z,23.98
2022-07-30T13:46:29.588Z,23.99
2022-07-30T13:47:38.166Z,24
2022-07-30T13:48:46.794Z,24.01
2022-07-30T13:49:56.333Z,24.030001
2022-07-30T13:51:03.960Z,24.040001
2022-07-30T13:52:12.502Z,24.049999
2022-07-30T13:53:22.071Z,24.059999
2022-07-30T13:54:29.648Z,24.08
2022-07-30T13:55:39.222Z,24.09
2022-07-30T13:56:47.757Z,24.1
2022-07-30T13:57:56.335Z,24.110001
2022-07-30T13:59:06.167Z,24.129999
2022-07-30T14:00:14.836Z,24.139999
2022-07-30T14:01:22.714Z,24.15
2022-07-30T14:02:32.235Z,24.16
2022-07-30T14:03:40.789Z,24.18
2022-07-30T14:04:50.335Z,24.190001
2022-07-30T14:06:10.192Z,24.209999
2022-07-30T14:07:10.501Z,24.219999
2022-07-30T14:08:20.105Z,24.24
2022-07-30T14:09:28.664Z,24.25
2022-07-30T14:10:39.252Z,24.26
2022-07-30T14:11:48.826Z,24.280001
2022-07-30T14:12:57.384Z,24.290001
2022-07-30T14:14:06.945Z,24.299999
2022-07-30T14:15:17.847Z,24.309999
2022-07-30T14:16:44.016Z,24.309999
2022-07-30T14:17:35.617Z,24.32
2022-07-30T14:18:45.226Z,24.33
2022-07-30T14:19:53.809Z,24.34
2022-07-30T14:21:03.378Z,24.34
2022-07-30T14:22:11.984Z,24.35
2022-07-30T14:23:21.569Z,24.35
2022-07-30T14:24:30.125Z,24.35
2022-07-30T14:25:38.695Z,24.35
2022-07-30T14:26:48.280Z,24.35
2022-07-30T14:27:56.848Z,24.35
2022-07-30T14:29:05.383Z,24.360001
2022-07-30T14:30:14.975Z,24.360001
2022-07-30T14:31:22.602Z,24.360001
2022-07-30T14:32:32.719Z,24.360001
2022-07-30T14:33:40.830Z,24.35
2022-07-30T14:34:49.095Z,24.35
2022-07-30T14:35:58.009Z,24.360001
2022-07-30T14:37:06.600Z,24.360001
2022-07-30T14:38:16.148Z,24.360001
2022-07-30T14:39:26.738Z,24.360001
2022-07-30T14:40:35.364Z,24.360001
2022-07-30T14:41:44.994Z,24.360001
2022-07-30T14:42:56.038Z,24.360001
2022-07-30T14:44:02.123Z,24.360001
2022-07-30T14:45:11.727Z,24.360001
2022-07-30T14:46:20.312Z,24.35
2022-07-30T14:47:28.915Z,24.35
2022-07-30T14:48:38.481Z,24.35
2022-07-30T14:49:47.073Z,24.35
2022-07-30T14:51:13.288Z,24.35
2022-07-30T14:52:07.236Z,24.35
2022-07-30T14:53:19.210Z,24.35
2022-07-30T14:54:25.455Z,24.35
2022-07-30T14:55:34.043Z,24.35
2022-07-30T14:56:42.623Z,24.35
2022-07-30T14:57:53.186Z,24.35
2022-07-30T14:59:01.750Z,24.35
2022-07-30T15:00:11.352Z,24.35
2022-07-30T15:01:20.968Z,24.35
2022-07-30T15:02:29.486Z,24.35
2022-07-30T15:03:39.099Z,24.360001
2022-07-30T15:04:46.717Z,24.360001
2022-07-30T15:05:55.358Z,24.360001
2022-07-30T15:07:04.949Z,24.360001
2022-07-30T15:08:13.526Z,24.360001
2022-07-30T15:09:23.153Z,24.360001
2022-07-30T15:10:32.723Z,24.370001
2022-07-30T15:12:04.624Z,24.370001
2022-07-30T15:12:52.843Z,24.370001
2022-07-30T15:14:00.477Z,24.370001
2022-07-30T15:15:10.125Z,24.370001
2022-07-30T15:16:20.668Z,24.379999
2022-07-30T15:17:28.296Z,24.379999
2022-07-30T15:18:37.863Z,24.379999
2022-07-30T15:19:49.242Z,24.379999
2022-07-30T15:20:54.091Z,24.379999
2022-07-30T15:22:03.842Z,24.389999
2022-07-30T15:23:13.548Z,24.389999
2022-07-30T15:24:20.861Z,24.4
2022-07-30T15:25:30.506Z,24.4
2022-07-30T15:26:38.076Z,24.4
2022-07-30T15:27:47.792Z,24.4
2022-07-30T15:28:57.347Z,24.4
2022-07-30T15:30:05.987Z,24.4
2022-07-30T15:31:15.626Z,24.41
2022-07-30T15:32:23.262Z,24.41
2022-07-30T15:33:36.057Z,24.41
2022-07-30T15:34:41.367Z,24.41
2022-07-30T15:35:48.923Z,24.41
2022-07-30T15:36:58.562Z,24.41
2022-07-30T15:38:08.168Z,24.41
2022-07-30T15:39:17.714Z,24.42
2022-07-30T15:40:26.313Z,24.42
2022-07-30T15:41:35.931Z,24.42
2022-07-30T15:42:43.524Z,24.42
2022-07-30T15:43:53.180Z,24.42
2022-07-30T15:45:16.421Z,24.42
2022-07-30T15:46:12.344Z,24.42
2022-07-30T15:47:21.974Z,24.42
2022-07-30T15:48:30.543Z,24.43
2022-07-30T15:49:40.393Z,24.43
2022-07-30T15:50:49.881Z,24.43
2022-07-30T15:51:57.475Z,24.43
2022-07-30T15:53:10.052Z,24.43
2022-07-30T15:54:21.019Z,24.43
2022-07-30T15:55:26.346Z,24.43
2022-07-30T15:56:36.910Z,24.43
2022-07-30T15:57:44.469Z,24.43
2022-07-30T15:58:53.051Z,24.43
2022-07-30T16:00:02.649Z,24.43
2022-07-30T16:01:10.304Z,24.43
2022-07-30T16:02:19.859Z,24.43
2022-07-30T16:03:29.421Z,24.43
2022-07-30T16:04:37.040Z,24.43
2022-07-30T16:05:51.042Z,24.43
2022-07-30T16:06:57.416Z,24.440001
2022-07-30T16:08:05.994Z,24.440001
2022-07-30T16:09:16.604Z,24.440001
2022-07-30T16:10:24.157Z,24.440001
2022-07-30T16:11:33.702Z,24.440001
2022-07-30T16:12:42.333Z,24.440001
2022-07-30T16:13:50.927Z,24.440001
2022-07-30T16:15:00.589Z,24.440001
2022-07-30T16:16:08.169Z,24.440001
2022-07-30T16:17:16.741Z,24.440001
2022-07-30T16:18:26.337Z,24.440001
2022-07-30T16:19:33.961Z,24.440001
2022-07-30T16:20:43.552Z,24.440001
2022-07-30T16:21:52.161Z,24.440001
2022-07-30T16:23:00.817Z,24.440001
2022-07-30T16:24:11.412Z,24.440001
2022-07-30T16:25:19.022Z,24.440001
2022-07-30T16:26:27.649Z,24.440001
2022-07-30T16:27:37.290Z,24.440001
2022-07-30T16:28:44.883Z,24.440001
2022-07-30T16:29:54.562Z,24.450001
2022-07-30T16:31:03.129Z,24.440001
2022-07-30T16:32:11.838Z,24.450001
2022-07-30T16:33:22.414Z,24.450001
2022-07-30T16:34:30.084Z,24.450001
2022-07-30T16:35:48.810Z,24.450001
2022-07-30T16:36:49.335Z,24.450001
2022-07-30T16:37:57.952Z,24.450001
2022-07-30T16:39:07.564Z,24.440001
2022-07-30T16:40:16.203Z,24.440001
2022-07-30T16:41:23.767Z,24.440001
2022-07-30T16:42:33.419Z,24.440001
2022-07-30T16:43:42.015Z,24.440001
2022-07-30T16:44:58.174Z,24.440001
2022-07-30T16:46:07.727Z,24.440001
2022-07-30T16:47:17.301Z,24.440001
2022-07-30T16:48:25.056Z,24.440001
2022-07-30T16:49:33.707Z,24.440001
2022-07-30T16:50:41.186Z,24.440001
2022-07-30T16:51:50.802Z,24.440001
2022-07-30T16:52:59.375Z,24.450001
2022-07-30T16:54:07.969Z,24.450001
2022-07-30T16:55:17.552Z,24.450001
